sensor_id;sensor_type;location;lat;lon;timestamp;P1;durP1;ratioP1;P2;durP2;ratioP2
4359;SDS011;2193;47.980;7.660;2023-02-26T00:00:33;2.10;;;1.60;;
4359;SDS011;2193;47.980;7.660;2023-02-26T00:02:58;3.60;;;1.40;;
4359;SDS011;2193;47.980;7.660;2023-02-26T00:05:24;2.20;;;1.40;;
4359;SDS011;2193;47.980;7.660;2023-02-26T00:07:49;2.00;;;1.37;;
4359;SDS011;2193;47.980;7.660;2023-02-26T00:10:14;1.40;;;1.30;;
4359;SDS011;2193;47.980;7.660;2023-02-26T00:12:40;2.40;;;1.50;;
4359;SDS011;2193;47.980;7.660;2023-02-26T00:15:06;6.70;;;1.80;;
4359;SDS011;2193;47.980;7.660;2023-02-26T00:20:00;1.52;;;1.42;;
4359;SDS011;2193;47.980;7.660;2023-02-26T00:22:25;1.30;;;1.20;;
4359;SDS011;2193;47.980;7.660;2023-02-26T00:24:51;1.10;;;1.10;;
4359;SDS011;2193;47.980;7.660;2023-02-26T00:27:16;2.77;;;1.50;;
4359;SDS011;2193;47.980;7.660;2023-02-26T00:29:41;1.97;;;1.77;;
4359;SDS011;2193;47.980;7.660;2023-02-26T00:32:07;4.10;;;1.53;;
4359;SDS011;2193;47.980;7.660;2023-02-26T00:34:32;2.17;;;1.70;;
4359;SDS011;2193;47.980;7.660;2023-02-26T00:41:48;3.47;;;1.60;;
4359;SDS011;2193;47.980;7.660;2023-02-26T00:44:13;2.20;;;1.50;;
4359;SDS011;2193;47.980;7.660;2023-02-26T00:51:41;2.15;;;1.90;;
4359;SDS011;2193;47.980;7.660;2023-02-26T00:54:12;2.00;;;1.40;;
4359;SDS011;2193;47.980;7.660;2023-02-26T00:56:40;2.38;;;1.88;;
4359;SDS011;2193;47.980;7.660;2023-02-26T00:59:05;4.80;;;1.70;;
4359;SDS011;2193;47.980;7.660;2023-02-26T01:01:30;1.90;;;1.70;;
4359;SDS011;2193;47.980;7.660;2023-02-26T01:03:56;3.53;;;1.40;;
4359;SDS011;2193;47.980;7.660;2023-02-26T01:06:21;2.50;;;2.07;;
4359;SDS011;2193;47.980;7.660;2023-02-26T01:08:53;4.90;;;2.10;;
4359;SDS011;2193;47.980;7.660;2023-02-26T01:11:20;3.13;;;2.00;;
4359;SDS011;2193;47.980;7.660;2023-02-26T01:13:45;1.90;;;1.70;;
4359;SDS011;2193;47.980;7.660;2023-02-26T01:16:11;2.63;;;2.10;;
4359;SDS011;2193;47.980;7.660;2023-02-26T01:18:41;4.10;;;1.63;;
4359;SDS011;2193;47.980;7.660;2023-02-26T01:21:09;2.22;;;1.70;;
4359;SDS011;2193;47.980;7.660;2023-02-26T01:23:40;3.30;;;1.50;;
4359;SDS011;2193;47.980;7.660;2023-02-26T01:26:11;5.22;;;2.10;;
4359;SDS011;2193;47.980;7.660;2023-02-26T01:28:38;6.15;;;1.60;;
4359;SDS011;2193;47.980;7.660;2023-02-26T01:31:04;3.53;;;1.60;;
4359;SDS011;2193;47.980;7.660;2023-02-26T01:43:45;3.70;;;1.57;;
4359;SDS011;2193;47.980;7.660;2023-02-26T01:48:47;2.15;;;1.60;;
4359;SDS011;2193;47.980;7.660;2023-02-26T01:51:13;2.25;;;1.73;;
4359;SDS011;2193;47.980;7.660;2023-02-26T01:53:38;1.77;;;1.67;;
4359;SDS011;2193;47.980;7.660;2023-02-26T01:56:05;1.60;;;1.50;;
4359;SDS011;2193;47.980;7.660;2023-02-26T01:58:33;1.90;;;1.70;;
4359;SDS011;2193;47.980;7.660;2023-02-26T02:01:00;3.35;;;1.65;;
4359;SDS011;2193;47.980;7.660;2023-02-26T02:03:26;2.10;;;1.60;;
4359;SDS011;2193;47.980;7.660;2023-02-26T02:05:54;1.40;;;1.30;;
4359;SDS011;2193;47.980;7.660;2023-02-26T02:08:20;3.10;;;1.65;;
4359;SDS011;2193;47.980;7.660;2023-02-26T02:10:46;4.23;;;2.10;;
4359;SDS011;2193;47.980;7.660;2023-02-26T02:13:19;1.40;;;1.25;;
4359;SDS011;2193;47.980;7.660;2023-02-26T02:15:50;2.03;;;1.80;;
4359;SDS011;2193;47.980;7.660;2023-02-26T02:23:14;4.57;;;1.67;;
4359;SDS011;2193;47.980;7.660;2023-02-26T02:31:06;1.85;;;1.58;;
4359;SDS011;2193;47.980;7.660;2023-02-26T02:33:34;2.65;;;1.35;;
4359;SDS011;2193;47.980;7.660;2023-02-26T02:36:02;1.98;;;1.75;;
4359;SDS011;2193;47.980;7.660;2023-02-26T02:38:48;1.80;;;1.70;;
4359;SDS011;2193;47.980;7.660;2023-02-26T02:41:18;2.92;;;1.77;;
4359;SDS011;2193;47.980;7.660;2023-02-26T02:43:44;2.00;;;1.90;;
4359;SDS011;2193;47.980;7.660;2023-02-26T02:46:10;2.07;;;1.90;;
4359;SDS011;2193;47.980;7.660;2023-02-26T02:48:37;5.10;;;1.50;;
4359;SDS011;2193;47.980;7.660;2023-02-26T02:51:06;3.97;;;1.60;;
4359;SDS011;2193;47.980;7.660;2023-02-26T02:53:33;1.88;;;1.75;;
4359;SDS011;2193;47.980;7.660;2023-02-26T02:56:04;1.98;;;1.50;;
4359;SDS011;2193;47.980;7.660;2023-02-26T02:58:33;2.78;;;2.10;;
4359;SDS011;2193;47.980;7.660;2023-02-26T03:01:02;2.08;;;1.33;;
4359;SDS011;2193;47.980;7.660;2023-02-26T03:05:56;3.20;;;1.70;;
4359;SDS011;2193;47.980;7.660;2023-02-26T03:08:24;2.00;;;1.70;;
4359;SDS011;2193;47.980;7.660;2023-02-26T03:10:50;1.90;;;1.45;;
4359;SDS011;2193;47.980;7.660;2023-02-26T03:13:20;5.23;;;2.23;;
4359;SDS011;2193;47.980;7.660;2023-02-26T03:15:52;3.50;;;1.88;;
4359;SDS011;2193;47.980;7.660;2023-02-26T03:18:23;2.28;;;1.42;;
4359;SDS011;2193;47.980;7.660;2023-02-26T03:23:27;1.83;;;1.73;;
4359;SDS011;2193;47.980;7.660;2023-02-26T03:25:57;1.85;;;1.65;;
4359;SDS011;2193;47.980;7.660;2023-02-26T03:28:27;2.90;;;1.70;;
4359;SDS011;2193;47.980;7.660;2023-02-26T03:30:56;2.00;;;1.80;;
4359;SDS011;2193;47.980;7.660;2023-02-26T03:33:26;3.53;;;1.75;;
4359;SDS011;2193;47.980;7.660;2023-02-26T03:38:34;3.00;;;2.20;;
4359;SDS011;2193;47.980;7.660;2023-02-26T03:41:02;1.80;;;1.70;;
4359;SDS011;2193;47.980;7.660;2023-02-26T03:43:33;3.58;;;1.95;;
4359;SDS011;2193;47.980;7.660;2023-02-26T03:46:01;3.28;;;2.22;;
4359;SDS011;2193;47.980;7.660;2023-02-26T03:48:28;2.95;;;1.73;;
4359;SDS011;2193;47.980;7.660;2023-02-26T03:50:56;1.98;;;1.80;;
4359;SDS011;2193;47.980;7.660;2023-02-26T03:53:26;2.53;;;2.20;;
4359;SDS011;2193;47.980;7.660;2023-02-26T03:56:36;2.22;;;1.90;;
4359;SDS011;2193;47.980;7.660;2023-02-26T03:58:41;1.90;;;1.77;;
4359;SDS011;2193;47.980;7.660;2023-02-26T04:01:08;2.70;;;1.60;;
4359;SDS011;2193;47.980;7.660;2023-02-26T04:03:37;2.65;;;1.90;;
4359;SDS011;2193;47.980;7.660;2023-02-26T04:06:04;1.88;;;1.70;;
4359;SDS011;2193;47.980;7.660;2023-02-26T04:08:29;2.47;;;1.73;;
4359;SDS011;2193;47.980;7.660;2023-02-26T04:13:30;1.98;;;1.77;;
4359;SDS011;2193;47.980;7.660;2023-02-26T04:15:55;3.20;;;2.07;;
4359;SDS011;2193;47.980;7.660;2023-02-26T04:18:20;2.83;;;1.90;;
4359;SDS011;2193;47.980;7.660;2023-02-26T04:20:45;2.73;;;2.03;;
4359;SDS011;2193;47.980;7.660;2023-02-26T04:23:10;2.80;;;2.03;;
4359;SDS011;2193;47.980;7.660;2023-02-26T04:25:36;5.23;;;1.90;;
4359;SDS011;2193;47.980;7.660;2023-02-26T04:28:01;2.97;;;2.10;;
4359;SDS011;2193;47.980;7.660;2023-02-26T04:30:26;2.20;;;1.67;;
4359;SDS011;2193;47.980;7.660;2023-02-26T04:32:52;2.20;;;1.67;;
4359;SDS011;2193;47.980;7.660;2023-02-26T04:35:17;1.80;;;1.70;;
4359;SDS011;2193;47.980;7.660;2023-02-26T04:37:43;1.97;;;1.70;;
4359;SDS011;2193;47.980;7.660;2023-02-26T04:40:08;3.87;;;2.17;;
4359;SDS011;2193;47.980;7.660;2023-02-26T04:42:33;5.10;;;2.30;;
4359;SDS011;2193;47.980;7.660;2023-02-26T04:44:59;4.80;;;1.70;;
4359;SDS011;2193;47.980;7.660;2023-02-26T04:47:24;3.83;;;1.83;;
4359;SDS011;2193;47.980;7.660;2023-02-26T04:49:49;2.50;;;2.00;;
4359;SDS011;2193;47.980;7.660;2023-02-26T04:52:14;2.43;;;2.20;;
4359;SDS011;2193;47.980;7.660;2023-02-26T04:54:39;3.43;;;1.60;;
4359;SDS011;2193;47.980;7.660;2023-02-26T04:57:05;2.60;;;2.30;;
4359;SDS011;2193;47.980;7.660;2023-02-26T04:59:30;6.30;;;2.47;;
4359;SDS011;2193;47.980;7.660;2023-02-26T05:01:55;3.77;;;1.90;;
4359;SDS011;2193;47.980;7.660;2023-02-26T05:04:21;3.73;;;2.10;;
4359;SDS011;2193;47.980;7.660;2023-02-26T05:06:46;2.80;;;2.10;;
4359;SDS011;2193;47.980;7.660;2023-02-26T05:09:11;5.23;;;2.13;;
4359;SDS011;2193;47.980;7.660;2023-02-26T05:11:36;1.90;;;1.80;;
4359;SDS011;2193;47.980;7.660;2023-02-26T05:14:01;5.60;;;2.23;;
4359;SDS011;2193;47.980;7.660;2023-02-26T05:16:26;4.13;;;2.60;;
4359;SDS011;2193;47.980;7.660;2023-02-26T05:18:52;4.03;;;2.00;;
4359;SDS011;2193;47.980;7.660;2023-02-26T05:21:17;2.83;;;1.70;;
4359;SDS011;2193;47.980;7.660;2023-02-26T05:23:42;2.47;;;2.20;;
4359;SDS011;2193;47.980;7.660;2023-02-26T05:26:08;5.67;;;2.00;;
4359;SDS011;2193;47.980;7.660;2023-02-26T05:28:33;2.23;;;2.00;;
4359;SDS011;2193;47.980;7.660;2023-02-26T05:30:58;1.63;;;1.50;;
4359;SDS011;2193;47.980;7.660;2023-02-26T05:33:24;3.83;;;2.10;;
4359;SDS011;2193;47.980;7.660;2023-02-26T05:35:49;4.17;;;1.70;;
4359;SDS011;2193;47.980;7.660;2023-02-26T05:38:14;4.33;;;2.30;;
4359;SDS011;2193;47.980;7.660;2023-02-26T05:40:39;2.60;;;1.97;;
4359;SDS011;2193;47.980;7.660;2023-02-26T05:43:05;2.13;;;1.77;;
4359;SDS011;2193;47.980;7.660;2023-02-26T05:45:30;3.50;;;1.80;;
4359;SDS011;2193;47.980;7.660;2023-02-26T05:47:55;3.73;;;1.77;;
4359;SDS011;2193;47.980;7.660;2023-02-26T05:50:20;4.27;;;2.33;;
4359;SDS011;2193;47.980;7.660;2023-02-26T05:52:46;5.57;;;1.63;;
4359;SDS011;2193;47.980;7.660;2023-02-26T05:55:11;2.50;;;1.87;;
4359;SDS011;2193;47.980;7.660;2023-02-26T05:57:36;2.07;;;1.57;;
4359;SDS011;2193;47.980;7.660;2023-02-26T06:00:02;2.03;;;1.70;;
4359;SDS011;2193;47.980;7.660;2023-02-26T06:02:28;6.70;;;1.83;;
4359;SDS011;2193;47.980;7.660;2023-02-26T06:04:53;5.30;;;1.90;;
4359;SDS011;2193;47.980;7.660;2023-02-26T06:07:18;7.00;;;2.20;;
4359;SDS011;2193;47.980;7.660;2023-02-26T06:09:43;3.03;;;1.77;;
4359;SDS011;2193;47.980;7.660;2023-02-26T06:12:08;3.80;;;2.10;;
4359;SDS011;2193;47.980;7.660;2023-02-26T06:14:34;2.70;;;1.70;;
4359;SDS011;2193;47.980;7.660;2023-02-26T06:17:00;1.53;;;1.40;;
4359;SDS011;2193;47.980;7.660;2023-02-26T06:19:25;2.20;;;2.00;;
4359;SDS011;2193;47.980;7.660;2023-02-26T06:21:51;2.97;;;2.10;;
4359;SDS011;2193;47.980;7.660;2023-02-26T06:24:16;2.40;;;1.80;;
4359;SDS011;2193;47.980;7.660;2023-02-26T06:26:41;2.17;;;1.47;;
4359;SDS011;2193;47.980;7.660;2023-02-26T06:29:06;1.80;;;1.70;;
4359;SDS011;2193;47.980;7.660;2023-02-26T06:31:32;1.60;;;1.50;;
4359;SDS011;2193;47.980;7.660;2023-02-26T06:33:57;7.23;;;2.00;;
4359;SDS011;2193;47.980;7.660;2023-02-26T06:36:22;2.40;;;1.63;;
4359;SDS011;2193;47.980;7.660;2023-02-26T06:38:48;3.50;;;2.33;;
4359;SDS011;2193;47.980;7.660;2023-02-26T06:41:13;4.27;;;1.83;;
4359;SDS011;2193;47.980;7.660;2023-02-26T06:43:38;2.20;;;1.80;;
4359;SDS011;2193;47.980;7.660;2023-02-26T06:46:04;4.60;;;2.13;;
4359;SDS011;2193;47.980;7.660;2023-02-26T06:48:29;4.23;;;2.10;;
4359;SDS011;2193;47.980;7.660;2023-02-26T06:50:54;5.97;;;2.33;;
4359;SDS011;2193;47.980;7.660;2023-02-26T06:53:19;3.90;;;1.97;;
4359;SDS011;2193;47.980;7.660;2023-02-26T06:55:45;6.00;;;2.07;;
4359;SDS011;2193;47.980;7.660;2023-02-26T06:58:11;2.67;;;2.00;;
4359;SDS011;2193;47.980;7.660;2023-02-26T07:00:37;5.50;;;1.80;;
4359;SDS011;2193;47.980;7.660;2023-02-26T07:03:02;5.37;;;1.90;;
4359;SDS011;2193;47.980;7.660;2023-02-26T07:05:28;5.90;;;2.20;;
4359;SDS011;2193;47.980;7.660;2023-02-26T07:07:53;5.70;;;2.23;;
4359;SDS011;2193;47.980;7.660;2023-02-26T07:10:18;3.20;;;2.10;;
4359;SDS011;2193;47.980;7.660;2023-02-26T07:12:45;2.75;;;2.10;;
4359;SDS011;2193;47.980;7.660;2023-02-26T07:15:10;5.07;;;2.00;;
4359;SDS011;2193;47.980;7.660;2023-02-26T07:17:35;5.90;;;1.97;;
4359;SDS011;2193;47.980;7.660;2023-02-26T07:20:01;3.00;;;1.77;;
4359;SDS011;2193;47.980;7.660;2023-02-26T07:22:30;3.08;;;2.38;;
4359;SDS011;2193;47.980;7.660;2023-02-26T07:24:55;3.73;;;2.23;;
4359;SDS011;2193;47.980;7.660;2023-02-26T07:27:21;3.57;;;1.90;;
4359;SDS011;2193;47.980;7.660;2023-02-26T07:29:46;3.63;;;2.20;;
4359;SDS011;2193;47.980;7.660;2023-02-26T07:32:11;4.40;;;1.93;;
4359;SDS011;2193;47.980;7.660;2023-02-26T07:34:36;3.20;;;2.07;;
4359;SDS011;2193;47.980;7.660;2023-02-26T07:37:02;2.30;;;2.07;;
4359;SDS011;2193;47.980;7.660;2023-02-26T07:39:27;7.73;;;2.67;;
4359;SDS011;2193;47.980;7.660;2023-02-26T07:41:52;3.60;;;2.20;;
4359;SDS011;2193;47.980;7.660;2023-02-26T07:44:18;2.63;;;1.80;;
4359;SDS011;2193;47.980;7.660;2023-02-26T07:46:43;4.73;;;2.30;;
4359;SDS011;2193;47.980;7.660;2023-02-26T07:49:09;6.40;;;2.30;;
4359;SDS011;2193;47.980;7.660;2023-02-26T07:51:34;3.50;;;1.87;;
4359;SDS011;2193;47.980;7.660;2023-02-26T07:53:59;3.83;;;1.70;;
4359;SDS011;2193;47.980;7.660;2023-02-26T07:56:24;3.43;;;2.37;;
4359;SDS011;2193;47.980;7.660;2023-02-26T07:58:50;6.93;;;2.40;;
4359;SDS011;2193;47.980;7.660;2023-02-26T08:01:15;3.03;;;2.23;;
4359;SDS011;2193;47.980;7.660;2023-02-26T08:03:40;3.30;;;2.07;;
4359;SDS011;2193;47.980;7.660;2023-02-26T08:06:05;4.20;;;2.03;;
4359;SDS011;2193;47.980;7.660;2023-02-26T08:08:32;5.10;;;2.47;;
4359;SDS011;2193;47.980;7.660;2023-02-26T08:10:58;2.63;;;1.70;;
4359;SDS011;2193;47.980;7.660;2023-02-26T08:13:23;5.25;;;2.20;;
4359;SDS011;2193;47.980;7.660;2023-02-26T08:15:48;4.77;;;2.80;;
4359;SDS011;2193;47.980;7.660;2023-02-26T08:18:14;7.90;;;2.20;;
4359;SDS011;2193;47.980;7.660;2023-02-26T08:20:39;4.47;;;2.40;;
4359;SDS011;2193;47.980;7.660;2023-02-26T08:23:04;3.63;;;2.43;;
4359;SDS011;2193;47.980;7.660;2023-02-26T08:25:29;4.67;;;2.67;;
4359;SDS011;2193;47.980;7.660;2023-02-26T08:27:54;4.57;;;2.40;;
4359;SDS011;2193;47.980;7.660;2023-02-26T08:30:21;5.35;;;2.20;;
4359;SDS011;2193;47.980;7.660;2023-02-26T08:32:47;7.83;;;2.03;;
4359;SDS011;2193;47.980;7.660;2023-02-26T08:35:13;5.25;;;2.40;;
4359;SDS011;2193;47.980;7.660;2023-02-26T08:37:42;4.57;;;2.37;;
4359;SDS011;2193;47.980;7.660;2023-02-26T08:40:07;3.47;;;1.80;;
4359;SDS011;2193;47.980;7.660;2023-02-26T08:42:33;6.93;;;2.83;;
4359;SDS011;2193;47.980;7.660;2023-02-26T08:44:58;4.23;;;2.30;;
4359;SDS011;2193;47.980;7.660;2023-02-26T08:47:23;8.53;;;3.13;;
4359;SDS011;2193;47.980;7.660;2023-02-26T08:49:48;7.53;;;2.97;;
4359;SDS011;2193;47.980;7.660;2023-02-26T08:52:13;5.30;;;2.50;;
4359;SDS011;2193;47.980;7.660;2023-02-26T08:54:39;5.27;;;2.30;;
4359;SDS011;2193;47.980;7.660;2023-02-26T08:57:04;7.10;;;2.13;;
4359;SDS011;2193;47.980;7.660;2023-02-26T08:59:29;3.30;;;2.30;;
4359;SDS011;2193;47.980;7.660;2023-02-26T09:01:54;3.50;;;2.00;;
4359;SDS011;2193;47.980;7.660;2023-02-26T09:04:20;5.63;;;2.70;;
4359;SDS011;2193;47.980;7.660;2023-02-26T09:06:45;2.43;;;2.23;;
4359;SDS011;2193;47.980;7.660;2023-02-26T09:09:10;2.70;;;2.20;;
4359;SDS011;2193;47.980;7.660;2023-02-26T09:11:35;5.07;;;2.13;;
4359;SDS011;2193;47.980;7.660;2023-02-26T09:14:01;2.10;;;1.90;;
4359;SDS011;2193;47.980;7.660;2023-02-26T09:16:27;2.53;;;2.33;;
4359;SDS011;2193;47.980;7.660;2023-02-26T09:18:53;2.47;;;2.27;;
4359;SDS011;2193;47.980;7.660;2023-02-26T09:21:18;3.93;;;2.27;;
4359;SDS011;2193;47.980;7.660;2023-02-26T09:23:43;5.70;;;2.63;;
4359;SDS011;2193;47.980;7.660;2023-02-26T09:26:08;3.50;;;2.10;;
4359;SDS011;2193;47.980;7.660;2023-02-26T09:28:34;3.50;;;2.57;;
4359;SDS011;2193;47.980;7.660;2023-02-26T09:30:59;2.90;;;2.60;;
4359;SDS011;2193;47.980;7.660;2023-02-26T09:33:24;3.10;;;2.80;;
4359;SDS011;2193;47.980;7.660;2023-02-26T09:35:50;6.20;;;3.23;;
4359;SDS011;2193;47.980;7.660;2023-02-26T09:38:15;4.77;;;3.10;;
4359;SDS011;2193;47.980;7.660;2023-02-26T09:45:37;2.50;;;1.50;;
4359;SDS011;2193;47.980;7.660;2023-02-26T09:48:05;7.78;;;2.13;;
4359;SDS011;2193;47.980;7.660;2023-02-26T09:50:34;1.95;;;1.75;;
4359;SDS011;2193;47.980;7.660;2023-02-26T09:53:04;5.80;;;2.90;;
4359;SDS011;2193;47.980;7.660;2023-02-26T09:55:35;6.43;;;3.42;;
4359;SDS011;2193;47.980;7.660;2023-02-26T09:58:03;2.72;;;1.38;;
4359;SDS011;2193;47.980;7.660;2023-02-26T10:03:19;2.03;;;1.15;;
4359;SDS011;2193;47.980;7.660;2023-02-26T10:08:19;2.65;;;1.60;;
4359;SDS011;2193;47.980;7.660;2023-02-26T10:11:10;2.97;;;2.03;;
4359;SDS011;2193;47.980;7.660;2023-02-26T10:16:03;7.72;;;2.90;;
4359;SDS011;2193;47.980;7.660;2023-02-26T10:18:30;7.43;;;2.13;;
4359;SDS011;2193;47.980;7.660;2023-02-26T10:21:02;0.90;;;0.80;;
4359;SDS011;2193;47.980;7.660;2023-02-26T10:23:45;2.28;;;1.00;;
4359;SDS011;2193;47.980;7.660;2023-02-26T10:31:17;5.85;;;2.90;;
4359;SDS011;2193;47.980;7.660;2023-02-26T10:33:57;3.78;;;2.38;;
4359;SDS011;2193;47.980;7.660;2023-02-26T10:36:27;4.60;;;2.17;;
4359;SDS011;2193;47.980;7.660;2023-02-26T10:39:00;5.90;;;2.03;;
4359;SDS011;2193;47.980;7.660;2023-02-26T10:41:27;4.43;;;2.47;;
4359;SDS011;2193;47.980;7.660;2023-02-26T10:44:56;5.18;;;2.38;;
4359;SDS011;2193;47.980;7.660;2023-02-26T10:52:00;3.80;;;2.10;;
4359;SDS011;2193;47.980;7.660;2023-02-26T10:56:52;2.80;;;2.30;;
4359;SDS011;2193;47.980;7.660;2023-02-26T10:59:17;3.73;;;2.47;;
4359;SDS011;2193;47.980;7.660;2023-02-26T11:01:42;6.20;;;3.03;;
4359;SDS011;2193;47.980;7.660;2023-02-26T11:04:15;3.73;;;2.30;;
4359;SDS011;2193;47.980;7.660;2023-02-26T11:06:54;3.25;;;2.30;;
4359;SDS011;2193;47.980;7.660;2023-02-26T11:09:28;4.28;;;2.17;;
4359;SDS011;2193;47.980;7.660;2023-02-26T11:11:56;3.42;;;1.90;;
4359;SDS011;2193;47.980;7.660;2023-02-26T11:14:25;2.65;;;1.60;;
4359;SDS011;2193;47.980;7.660;2023-02-26T11:16:53;4.93;;;2.33;;
4359;SDS011;2193;47.980;7.660;2023-02-26T11:19:22;1.52;;;1.33;;
4359;SDS011;2193;47.980;7.660;2023-02-26T11:21:49;3.65;;;1.70;;
4359;SDS011;2193;47.980;7.660;2023-02-26T11:24:25;1.97;;;1.13;;
4359;SDS011;2193;47.980;7.660;2023-02-26T11:26:53;2.00;;;1.70;;
4359;SDS011;2193;47.980;7.660;2023-02-26T11:29:19;1.38;;;1.10;;
4359;SDS011;2193;47.980;7.660;2023-02-26T11:31:51;2.25;;;1.42;;
4359;SDS011;2193;47.980;7.660;2023-02-26T11:34:20;0.90;;;0.90;;
4359;SDS011;2193;47.980;7.660;2023-02-26T11:36:45;2.95;;;1.30;;
4359;SDS011;2193;47.980;7.660;2023-02-26T11:39:20;1.37;;;1.20;;
4359;SDS011;2193;47.980;7.660;2023-02-26T11:41:46;1.20;;;1.10;;
4359;SDS011;2193;47.980;7.660;2023-02-26T11:44:14;1.05;;;1.00;;
4359;SDS011;2193;47.980;7.660;2023-02-26T11:46:52;1.20;;;1.10;;
4359;SDS011;2193;47.980;7.660;2023-02-26T11:49:23;2.08;;;1.58;;
4359;SDS011;2193;47.980;7.660;2023-02-26T11:51:59;1.35;;;1.25;;
4359;SDS011;2193;47.980;7.660;2023-02-26T11:54:27;1.45;;;1.15;;
4359;SDS011;2193;47.980;7.660;2023-02-26T11:56:59;3.67;;;1.40;;
4359;SDS011;2193;47.980;7.660;2023-02-26T11:59:25;5.28;;;1.02;;
4359;SDS011;2193;47.980;7.660;2023-02-26T12:01:51;2.40;;;1.43;;
4359;SDS011;2193;47.980;7.660;2023-02-26T12:04:24;3.10;;;1.30;;
4359;SDS011;2193;47.980;7.660;2023-02-26T12:06:50;2.13;;;0.90;;
4359;SDS011;2193;47.980;7.660;2023-02-26T12:09:16;2.05;;;1.17;;
4359;SDS011;2193;47.980;7.660;2023-02-26T12:21:44;2.10;;;1.60;;
4359;SDS011;2193;47.980;7.660;2023-02-26T12:24:26;1.83;;;1.50;;
4359;SDS011;2193;47.980;7.660;2023-02-26T12:27:18;1.40;;;1.30;;
4359;SDS011;2193;47.980;7.660;2023-02-26T12:35:03;2.33;;;1.53;;
4359;SDS011;2193;47.980;7.660;2023-02-26T12:47:34;4.27;;;1.53;;
4359;SDS011;2193;47.980;7.660;2023-02-26T12:55:00;1.70;;;1.60;;
4359;SDS011;2193;47.980;7.660;2023-02-26T13:00:30;2.08;;;1.30;;
4359;SDS011;2193;47.980;7.660;2023-02-26T13:20:32;2.90;;;1.30;;
4359;SDS011;2193;47.980;7.660;2023-02-26T13:23:00;1.65;;;1.20;;
4359;SDS011;2193;47.980;7.660;2023-02-26T13:25:46;1.63;;;1.52;;
4359;SDS011;2193;47.980;7.660;2023-02-26T13:30:59;2.97;;;1.30;;
4359;SDS011;2193;47.980;7.660;2023-02-26T13:33:31;2.43;;;1.07;;
4359;SDS011;2193;47.980;7.660;2023-02-26T13:35:57;2.47;;;1.00;;
4359;SDS011;2193;47.980;7.660;2023-02-26T13:38:31;1.43;;;1.27;;
4359;SDS011;2193;47.980;7.660;2023-02-26T13:51:34;1.50;;;1.27;;
4359;SDS011;2193;47.980;7.660;2023-02-26T14:09:55;1.10;;;1.10;;
4359;SDS011;2193;47.980;7.660;2023-02-26T14:12:18;1.30;;;1.20;;
4359;SDS011;2193;47.980;7.660;2023-02-26T14:22:42;1.63;;;1.13;;
4359;SDS011;2193;47.980;7.660;2023-02-26T14:28:16;1.33;;;1.00;;
4359;SDS011;2193;47.980;7.660;2023-02-26T14:30:37;1.35;;;1.25;;
4359;SDS011;2193;47.980;7.660;2023-02-26T14:33:17;2.03;;;1.20;;
4359;SDS011;2193;47.980;7.660;2023-02-26T14:35:46;1.80;;;1.70;;
4359;SDS011;2193;47.980;7.660;2023-02-26T14:38:32;1.23;;;1.13;;
4359;SDS011;2193;47.980;7.660;2023-02-26T14:41:13;1.25;;;1.15;;
4359;SDS011;2193;47.980;7.660;2023-02-26T14:43:48;1.55;;;1.45;;
4359;SDS011;2193;47.980;7.660;2023-02-26T14:46:15;2.42;;;1.60;;
4359;SDS011;2193;47.980;7.660;2023-02-26T14:48:41;1.20;;;1.10;;
4359;SDS011;2193;47.980;7.660;2023-02-26T14:58:58;1.50;;;1.40;;
4359;SDS011;2193;47.980;7.660;2023-02-26T15:04:19;1.70;;;1.60;;
4359;SDS011;2193;47.980;7.660;2023-02-26T15:17:59;1.50;;;1.40;;
4359;SDS011;2193;47.980;7.660;2023-02-26T15:20:48;1.15;;;1.13;;
4359;SDS011;2193;47.980;7.660;2023-02-26T15:23:19;1.30;;;1.20;;
4359;SDS011;2193;47.980;7.660;2023-02-26T15:25:47;1.70;;;1.60;;
4359;SDS011;2193;47.980;7.660;2023-02-26T15:28:21;1.50;;;1.40;;
4359;SDS011;2193;47.980;7.660;2023-02-26T15:30:48;2.53;;;1.50;;
4359;SDS011;2193;47.980;7.660;2023-02-26T15:33:14;1.30;;;1.20;;
4359;SDS011;2193;47.980;7.660;2023-02-26T15:35:42;1.30;;;1.20;;
4359;SDS011;2193;47.980;7.660;2023-02-26T15:38:07;1.30;;;1.00;;
4359;SDS011;2193;47.980;7.660;2023-02-26T15:40:34;1.10;;;1.00;;
4359;SDS011;2193;47.980;7.660;2023-02-26T15:42:59;1.90;;;1.20;;
4359;SDS011;2193;47.980;7.660;2023-02-26T15:47:53;0.90;;;0.85;;
4359;SDS011;2193;47.980;7.660;2023-02-26T15:50:19;1.35;;;0.90;;
4359;SDS011;2193;47.980;7.660;2023-02-26T15:52:47;2.25;;;1.00;;
4359;SDS011;2193;47.980;7.660;2023-02-26T15:55:15;1.88;;;0.90;;
4359;SDS011;2193;47.980;7.660;2023-02-26T15:57:41;1.20;;;1.10;;
4359;SDS011;2193;47.980;7.660;2023-02-26T16:00:25;1.30;;;1.20;;
4359;SDS011;2193;47.980;7.660;2023-02-26T16:02:53;2.10;;;1.33;;
4359;SDS011;2193;47.980;7.660;2023-02-26T16:05:21;1.90;;;1.00;;
4359;SDS011;2193;47.980;7.660;2023-02-26T16:07:46;1.60;;;1.27;;
4359;SDS011;2193;47.980;7.660;2023-02-26T16:12:55;1.80;;;1.70;;
4359;SDS011;2193;47.980;7.660;2023-02-26T16:15:53;5.80;;;3.60;;
4359;SDS011;2193;47.980;7.660;2023-02-26T16:18:13;1.33;;;1.23;;
4359;SDS011;2193;47.980;7.660;2023-02-26T16:20:43;1.58;;;1.00;;
4359;SDS011;2193;47.980;7.660;2023-02-26T16:23:11;0.98;;;0.88;;
4359;SDS011;2193;47.980;7.660;2023-02-26T16:25:38;1.33;;;1.00;;
4359;SDS011;2193;47.980;7.660;2023-02-26T16:28:14;1.70;;;1.25;;
4359;SDS011;2193;47.980;7.660;2023-02-26T16:30:41;2.15;;;1.10;;
4359;SDS011;2193;47.980;7.660;2023-02-26T16:33:16;1.25;;;0.80;;
4359;SDS011;2193;47.980;7.660;2023-02-26T16:35:54;1.45;;;1.10;;
4359;SDS011;2193;47.980;7.660;2023-02-26T16:38:23;0.93;;;0.93;;
4359;SDS011;2193;47.980;7.660;2023-02-26T16:40:55;1.00;;;0.90;;
4359;SDS011;2193;47.980;7.660;2023-02-26T16:46:05;1.15;;;1.10;;
4359;SDS011;2193;47.980;7.660;2023-02-26T16:48:32;0.93;;;0.83;;
4359;SDS011;2193;47.980;7.660;2023-02-26T16:51:10;0.98;;;0.98;;
4359;SDS011;2193;47.980;7.660;2023-02-26T16:53:39;1.20;;;1.10;;
4359;SDS011;2193;47.980;7.660;2023-02-26T16:56:08;0.80;;;0.80;;
4359;SDS011;2193;47.980;7.660;2023-02-26T16:58:36;1.95;;;1.50;;
4359;SDS011;2193;47.980;7.660;2023-02-26T17:01:11;5.63;;;2.30;;
4359;SDS011;2193;47.980;7.660;2023-02-26T17:03:36;1.27;;;1.17;;
4359;SDS011;2193;47.980;7.660;2023-02-26T17:06:07;1.17;;;1.07;;
4359;SDS011;2193;47.980;7.660;2023-02-26T17:08:34;1.50;;;1.40;;
4359;SDS011;2193;47.980;7.660;2023-02-26T17:11:06;2.35;;;2.05;;
4359;SDS011;2193;47.980;7.660;2023-02-26T17:13:32;1.60;;;1.48;;
4359;SDS011;2193;47.980;7.660;2023-02-26T17:16:00;1.23;;;1.13;;
4359;SDS011;2193;47.980;7.660;2023-02-26T17:18:25;1.85;;;1.70;;
4359;SDS011;2193;47.980;7.660;2023-02-26T17:20:50;2.07;;;1.47;;
4359;SDS011;2193;47.980;7.660;2023-02-26T17:23:16;1.40;;;1.30;;
4359;SDS011;2193;47.980;7.660;2023-02-26T17:25:45;1.13;;;1.13;;
4359;SDS011;2193;47.980;7.660;2023-02-26T17:28:15;1.25;;;1.15;;
4359;SDS011;2193;47.980;7.660;2023-02-26T17:30:41;1.40;;;1.30;;
4359;SDS011;2193;47.980;7.660;2023-02-26T17:33:08;1.47;;;1.37;;
4359;SDS011;2193;47.980;7.660;2023-02-26T17:35:35;1.30;;;1.20;;
4359;SDS011;2193;47.980;7.660;2023-02-26T17:38:00;1.20;;;1.10;;
4359;SDS011;2193;47.980;7.660;2023-02-26T17:40:31;1.50;;;1.37;;
4359;SDS011;2193;47.980;7.660;2023-02-26T17:42:57;1.05;;;1.05;;
4359;SDS011;2193;47.980;7.660;2023-02-26T17:45:24;1.23;;;1.00;;
4359;SDS011;2193;47.980;7.660;2023-02-26T17:47:49;0.90;;;0.90;;
4359;SDS011;2193;47.980;7.660;2023-02-26T17:50:19;1.60;;;1.10;;
4359;SDS011;2193;47.980;7.660;2023-02-26T17:52:46;1.20;;;1.20;;
4359;SDS011;2193;47.980;7.660;2023-02-26T17:55:11;3.00;;;1.20;;
4359;SDS011;2193;47.980;7.660;2023-02-26T17:57:36;1.67;;;1.43;;
4359;SDS011;2193;47.980;7.660;2023-02-26T18:00:02;1.53;;;1.30;;
4359;SDS011;2193;47.980;7.660;2023-02-26T18:02:29;2.00;;;1.63;;
4359;SDS011;2193;47.980;7.660;2023-02-26T18:04:54;3.27;;;1.83;;
4359;SDS011;2193;47.980;7.660;2023-02-26T18:07:19;2.00;;;1.80;;
4359;SDS011;2193;47.980;7.660;2023-02-26T18:09:46;1.50;;;1.40;;
4359;SDS011;2193;47.980;7.660;2023-02-26T18:12:15;4.90;;;1.63;;
4359;SDS011;2193;47.980;7.660;2023-02-26T18:14:41;2.00;;;1.83;;
4359;SDS011;2193;47.980;7.660;2023-02-26T18:17:08;2.93;;;2.63;;
4359;SDS011;2193;47.980;7.660;2023-02-26T18:19:34;4.90;;;4.40;;
4359;SDS011;2193;47.980;7.660;2023-02-26T18:21:59;1.80;;;1.70;;
4359;SDS011;2193;47.980;7.660;2023-02-26T18:24:24;2.27;;;2.07;;
4359;SDS011;2193;47.980;7.660;2023-02-26T18:26:50;1.50;;;1.40;;
4359;SDS011;2193;47.980;7.660;2023-02-26T18:29:15;1.40;;;1.30;;